Líbí se Vám tento web? Budeme velmi rádi, pokud přidáte hodnocení +1

Seznam meteostanic a jejich METAR

Vyhledat místa podle abecedy:
A B C D E F G H I J K L M N O P Q R S T U V W X Y Z

Filtrovat:

ID stanice:
a/nebo
Název místa (fulltext):
 
Místo (ID)Naposledy načteno 
Iasi (LRIA) 17.01.2018 16:00 UTC Zobrazit METAR
LRIA 171600Z 08008KT 2000 SN BR SCT002 BKN010 BKN025 M01/M01 Q0996 R14/690194
Ibiza (LEIB) 17.01.2018 21:00 UTC Zobrazit METAR
LEIB 172100Z 08003KT 030V120 9999 FEW048 09/05 Q1025 NOSIG
Innsbruck (LOWI) 17.01.2018 20:50 UTC Zobrazit METAR
LOWI 172050Z 07006KT 040V140 9999 -SN FEW007 SCT015 BKN040 M00/M02 Q1012 R08/29//95 NOSIG
Iraklion (LGIR) 17.01.2018 20:50 UTC Zobrazit METAR
LGIR 172050Z 21011KT 9999 FEW020 16/11 Q1005 NOSIG
Isafjordur (BIIS) 17.01.2018 18:00 UTC Zobrazit METAR
BIIS 171800Z 01011KT 9999 VCSH OVC015 M01/M02 Q0983
Isla de Pascua (SCIP) 17.01.2018 21:00 UTC Zobrazit METAR
SCIP 172100Z 04005KT 360V110 7000 SHRA BKN023 24/21 Q1022 NOSIG
Islamabad (OPRN) 17.01.2018 21:00 UTC Zobrazit METAR
OPRN 172100Z 00000KT 5000 BR 09/05 Q1019 A30.10
Istanbul (LTBA) 17.01.2018 20:50 UTC Zobrazit METAR
LTBA 172050Z 19015KT 9999 SCT030 BKN080 12/08 Q0996 NOSIG
Ivano-Frankivs'k (UKLI) Zatím nenačteno  
Reklama

Počasí na Váš email

Emaily jsou bez reklamy a bez spamu



Odhlásit newsletter

Reklama


Lunární kalendář

  • 24.01.
  • 31.01.
  • 07.02.
  • 15.02.



Jsme na Google Plus

Reklama
Povinné ručení



Může Vás také zajímat:


Reklama